sensor_id;sensor_type;location;lat;lon;timestamp;pressure;altitude;pressure_sealevel;temperature;humidity
21234;BME280;10774;42.178;26.578;2024-01-16T00:00:46;98656.78;;;5.54;100.00
21234;BME280;10774;42.178;26.578;2024-01-16T00:03:12;98640.59;;;5.84;100.00
21234;BME280;10774;42.178;26.578;2024-01-16T00:05:37;98654.47;;;6.03;100.00
21234;BME280;10774;42.178;26.578;2024-01-16T00:08:03;98656.56;;;5.98;100.00
21234;BME280;10774;42.178;26.578;2024-01-16T00:10:29;98662.97;;;5.96;100.00
21234;BME280;10774;42.178;26.578;2024-01-16T00:12:54;98667.22;;;5.98;100.00
21234;BME280;10774;42.178;26.578;2024-01-16T00:15:20;98674.09;;;4.15;100.00
21234;BME280;10774;42.178;26.578;2024-01-16T00:17:45;98667.94;;;2.88;100.00
21234;BME280;10774;42.178;26.578;2024-01-16T00:20:11;98657.53;;;3.01;100.00
21234;BME280;10774;42.178;26.578;2024-01-16T00:22:36;98646.63;;;3.39;100.00
21234;BME280;10774;42.178;26.578;2024-01-16T00:25:02;98650.38;;;3.51;100.00
21234;BME280;10774;42.178;26.578;2024-01-16T00:27:27;98646.97;;;3.80;100.00
21234;BME280;10774;42.178;26.578;2024-01-16T00:29:52;98640.97;;;3.77;100.00
21234;BME280;10774;42.178;26.578;2024-01-16T00:32:18;98645.22;;;3.79;100.00
21234;BME280;10774;42.178;26.578;2024-01-16T00:34:43;98635.78;;;3.89;100.00
21234;BME280;10774;42.178;26.578;2024-01-16T00:37:09;98640.97;;;3.77;100.00
21234;BME280;10774;42.178;26.578;2024-01-16T00:39:34;98650.53;;;3.79;100.00
21234;BME280;10774;42.178;26.578;2024-01-16T00:42:01;98639.75;;;3.82;100.00
21234;BME280;10774;42.178;26.578;2024-01-16T00:44:27;98658.59;;;3.30;100.00
21234;BME280;10774;42.178;26.578;2024-01-16T00:46:52;98654.81;;;3.19;100.00
21234;BME280;10774;42.178;26.578;2024-01-16T00:49:17;98671.03;;;2.97;100.00
21234;BME280;10774;42.178;26.578;2024-01-16T00:51:43;98662.25;;;2.28;100.00
21234;BME280;10774;42.178;26.578;2024-01-16T00:54:08;98684.72;;;2.20;100.00
21234;BME280;10774;42.178;26.578;2024-01-16T00:56:35;98673.44;;;2.16;100.00
21234;BME280;10774;42.178;26.578;2024-01-16T00:59:01;98670.50;;;2.40;100.00
21234;BME280;10774;42.178;26.578;2024-01-16T01:01:27;98665.50;;;2.33;100.00
21234;BME280;10774;42.178;26.578;2024-01-16T01:03:52;98680.19;;;2.74;100.00
21234;BME280;10774;42.178;26.578;2024-01-16T01:06:18;98668.53;;;2.26;100.00
21234;BME280;10774;42.178;26.578;2024-01-16T01:08:44;98679.38;;;2.39;100.00
21234;BME280;10774;42.178;26.578;2024-01-16T01:11:09;98672.97;;;2.60;100.00
21234;BME280;10774;42.178;26.578;2024-01-16T01:13:35;98666.88;;;2.75;100.00
21234;BME280;10774;42.178;26.578;2024-01-16T01:16:00;98664.50;;;2.86;100.00
21234;BME280;10774;42.178;26.578;2024-01-16T01:18:26;98657.22;;;2.74;100.00
21234;BME280;10774;42.178;26.578;2024-01-16T01:20:51;98665.66;;;2.98;100.00
21234;BME280;10774;42.178;26.578;2024-01-16T01:23:17;98657.59;;;3.00;100.00
21234;BME280;10774;42.178;26.578;2024-01-16T01:25:42;98652.91;;;3.05;100.00
21234;BME280;10774;42.178;26.578;2024-01-16T01:28:08;98666.13;;;3.22;100.00
21234;BME280;10774;42.178;26.578;2024-01-16T01:30:33;98656.63;;;3.34;100.00
21234;BME280;10774;42.178;26.578;2024-01-16T01:32:59;98647.63;;;3.36;100.00
21234;BME280;10774;42.178;26.578;2024-01-16T01:35:24;98657.16;;;3.40;100.00
21234;BME280;10774;42.178;26.578;2024-01-16T01:37:50;98643.78;;;3.42;100.00
21234;BME280;10774;42.178;26.578;2024-01-16T01:40:15;98643.38;;;3.50;100.00
21234;BME280;10774;42.178;26.578;2024-01-16T01:42:42;98642.53;;;3.65;100.00
21234;BME280;10774;42.178;26.578;2024-01-16T01:45:09;98634.28;;;3.85;100.00
21234;BME280;10774;42.178;26.578;2024-01-16T01:47:35;98622.06;;;3.67;100.00
21234;BME280;10774;42.178;26.578;2024-01-16T01:50:01;98632.06;;;3.62;100.00
21234;BME280;10774;42.178;26.578;2024-01-16T01:52:30;98631.56;;;3.71;100.00
21234;BME280;10774;42.178;26.578;2024-01-16T01:54:56;98635.66;;;3.77;100.00
21234;BME280;10774;42.178;26.578;2024-01-16T01:57:21;98634.44;;;3.82;100.00
21234;BME280;10774;42.178;26.578;2024-01-16T01:59:47;98626.34;;;4.00;100.00
21234;BME280;10774;42.178;26.578;2024-01-16T02:02:13;98626.19;;;4.03;100.00
21234;BME280;10774;42.178;26.578;2024-01-16T02:04:40;98630.53;;;4.04;100.00
21234;BME280;10774;42.178;26.578;2024-01-16T02:07:06;98634.31;;;4.00;100.00
21234;BME280;10774;42.178;26.578;2024-01-16T02:09:32;98614.25;;;3.80;100.00
21234;BME280;10774;42.178;26.578;2024-01-16T02:11:58;98620.00;;;3.56;100.00
21234;BME280;10774;42.178;26.578;2024-01-16T02:14:23;98612.41;;;3.50;100.00
21234;BME280;10774;42.178;26.578;2024-01-16T02:16:49;98618.44;;;3.05;100.00
21234;BME280;10774;42.178;26.578;2024-01-16T02:19:15;98617.78;;;2.68;100.00
21234;BME280;10774;42.178;26.578;2024-01-16T02:21:45;98619.31;;;3.21;100.00
21234;BME280;10774;42.178;26.578;2024-01-16T02:24:13;98611.91;;;3.12;100.00
21234;BME280;10774;42.178;26.578;2024-01-16T02:26:38;98601.28;;;2.96;100.00
21234;BME280;10774;42.178;26.578;2024-01-16T02:29:04;98615.03;;;3.03;100.00
21234;BME280;10774;42.178;26.578;2024-01-16T02:31:30;98595.66;;;3.18;100.00
21234;BME280;10774;42.178;26.578;2024-01-16T02:33:56;98621.47;;;3.30;100.00
21234;BME280;10774;42.178;26.578;2024-01-16T02:36:21;98630.63;;;3.40;100.00
21234;BME280;10774;42.178;26.578;2024-01-16T02:38:47;98628.13;;;3.53;100.00
21234;BME280;10774;42.178;26.578;2024-01-16T02:41:16;98613.25;;;3.66;100.00
21234;BME280;10774;42.178;26.578;2024-01-16T02:43:42;98617.47;;;3.85;100.00
21234;BME280;10774;42.178;26.578;2024-01-16T02:46:07;98626.63;;;3.95;100.00
21234;BME280;10774;42.178;26.578;2024-01-16T02:48:34;98648.41;;;4.16;100.00
21234;BME280;10774;42.178;26.578;2024-01-16T02:51:01;98628.53;;;4.23;100.00
21234;BME280;10774;42.178;26.578;2024-01-16T02:53:26;98624.91;;;4.24;100.00
21234;BME280;10774;42.178;26.578;2024-01-16T02:55:53;98638.94;;;4.26;100.00
21234;BME280;10774;42.178;26.578;2024-01-16T02:58:20;98632.41;;;4.32;100.00
21234;BME280;10774;42.178;26.578;2024-01-16T03:00:45;98653.53;;;4.19;100.00
21234;BME280;10774;42.178;26.578;2024-01-16T03:03:11;98638.09;;;4.26;100.00
21234;BME280;10774;42.178;26.578;2024-01-16T03:05:36;98646.91;;;4.12;100.00
21234;BME280;10774;42.178;26.578;2024-01-16T03:08:02;98649.78;;;4.23;100.00
21234;BME280;10774;42.178;26.578;2024-01-16T03:10:27;98660.03;;;4.29;100.00
21234;BME280;10774;42.178;26.578;2024-01-16T03:12:52;98651.22;;;4.29;100.00
21234;BME280;10774;42.178;26.578;2024-01-16T03:15:18;98655.03;;;4.39;100.00
21234;BME280;10774;42.178;26.578;2024-01-16T03:17:43;98671.72;;;4.41;100.00
21234;BME280;10774;42.178;26.578;2024-01-16T03:20:09;98662.06;;;4.40;100.00
21234;BME280;10774;42.178;26.578;2024-01-16T03:22:35;98665.59;;;4.55;100.00
21234;BME280;10774;42.178;26.578;2024-01-16T03:25:00;98671.63;;;4.42;100.00
21234;BME280;10774;42.178;26.578;2024-01-16T03:27:27;98665.78;;;4.52;100.00
21234;BME280;10774;42.178;26.578;2024-01-16T03:29:53;98660.72;;;4.33;100.00
21234;BME280;10774;42.178;26.578;2024-01-16T03:32:18;98654.81;;;3.82;100.00
21234;BME280;10774;42.178;26.578;2024-01-16T03:34:43;98659.81;;;3.56;100.00
21234;BME280;10774;42.178;26.578;2024-01-16T03:37:09;98667.84;;;3.55;100.00
21234;BME280;10774;42.178;26.578;2024-01-16T03:39:34;98678.25;;;3.89;100.00
21234;BME280;10774;42.178;26.578;2024-01-16T03:42:00;98657.88;;;3.90;100.00
21234;BME280;10774;42.178;26.578;2024-01-16T03:44:25;98670.88;;;3.94;100.00
21234;BME280;10774;42.178;26.578;2024-01-16T03:46:50;98669.78;;;3.99;100.00
21234;BME280;10774;42.178;26.578;2024-01-16T03:49:16;98666.28;;;3.98;100.00
21234;BME280;10774;42.178;26.578;2024-01-16T03:51:41;98677.22;;;4.08;100.00
21234;BME280;10774;42.178;26.578;2024-01-16T03:54:12;98678.63;;;3.83;100.00
21234;BME280;10774;42.178;26.578;2024-01-16T03:56:39;98685.47;;;3.87;100.00
21234;BME280;10774;42.178;26.578;2024-01-16T03:59:05;98699.75;;;3.69;100.00
21234;BME280;10774;42.178;26.578;2024-01-16T04:01:34;98699.47;;;3.26;100.00
21234;BME280;10774;42.178;26.578;2024-01-16T04:04:02;98713.63;;;3.09;100.00
21234;BME280;10774;42.178;26.578;2024-01-16T04:06:28;98696.06;;;2.91;100.00
21234;BME280;10774;42.178;26.578;2024-01-16T04:08:55;98711.22;;;3.05;100.00
21234;BME280;10774;42.178;26.578;2024-01-16T04:11:20;98710.91;;;3.11;100.00
21234;BME280;10774;42.178;26.578;2024-01-16T04:13:45;98716.44;;;3.39;100.00
21234;BME280;10774;42.178;26.578;2024-01-16T04:16:12;98730.44;;;3.26;100.00
21234;BME280;10774;42.178;26.578;2024-01-16T04:18:40;98719.59;;;2.97;100.00
21234;BME280;10774;42.178;26.578;2024-01-16T04:21:06;98725.91;;;2.95;100.00
21234;BME280;10774;42.178;26.578;2024-01-16T04:23:32;98728.56;;;2.77;100.00
21234;BME280;10774;42.178;26.578;2024-01-16T04:25:57;98723.38;;;2.76;100.00
21234;BME280;10774;42.178;26.578;2024-01-16T04:28:23;98726.41;;;2.85;100.00
21234;BME280;10774;42.178;26.578;2024-01-16T04:30:49;98740.75;;;2.64;100.00
21234;BME280;10774;42.178;26.578;2024-01-16T04:33:14;98751.00;;;2.53;100.00
21234;BME280;10774;42.178;26.578;2024-01-16T04:35:40;98751.00;;;2.53;100.00
21234;BME280;10774;42.178;26.578;2024-01-16T04:38:05;98785.44;;;2.53;100.00
21234;BME280;10774;42.178;26.578;2024-01-16T04:40:30;98779.28;;;2.35;100.00
21234;BME280;10774;42.178;26.578;2024-01-16T04:42:56;98775.00;;;2.32;100.00
21234;BME280;10774;42.178;26.578;2024-01-16T04:45:21;98781.56;;;2.43;100.00
21234;BME280;10774;42.178;26.578;2024-01-16T04:47:46;98788.50;;;2.26;100.00
21234;BME280;10774;42.178;26.578;2024-01-16T04:50:12;98796.03;;;2.35;100.00
21234;BME280;10774;42.178;26.578;2024-01-16T04:52:37;98802.06;;;2.56;100.00
21234;BME280;10774;42.178;26.578;2024-01-16T04:55:03;98800.38;;;2.90;100.00
21234;BME280;10774;42.178;26.578;2024-01-16T04:57:29;98800.44;;;2.88;100.00
21234;BME280;10774;42.178;26.578;2024-01-16T04:59:54;98821.06;;;2.99;100.00
21234;BME280;10774;42.178;26.578;2024-01-16T05:02:20;98825.38;;;3.02;100.00
21234;BME280;10774;42.178;26.578;2024-01-16T05:04:45;98814.47;;;3.08;100.00
21234;BME280;10774;42.178;26.578;2024-01-16T05:07:14;98832.38;;;3.20;100.00
21234;BME280;10774;42.178;26.578;2024-01-16T05:09:40;98848.44;;;3.34;100.00
21234;BME280;10774;42.178;26.578;2024-01-16T05:12:05;98839.38;;;3.38;100.00
21234;BME280;10774;42.178;26.578;2024-01-16T05:14:31;98853.88;;;3.31;100.00
21234;BME280;10774;42.178;26.578;2024-01-16T05:16:56;98852.97;;;3.32;100.00
21234;BME280;10774;42.178;26.578;2024-01-16T05:19:22;98860.72;;;3.53;100.00
21234;BME280;10774;42.178;26.578;2024-01-16T05:21:47;98853.38;;;3.58;100.00
21234;BME280;10774;42.178;26.578;2024-01-16T05:24:12;98869.56;;;3.36;100.00
21234;BME280;10774;42.178;26.578;2024-01-16T05:26:38;98875.41;;;3.42;100.00
21234;BME280;10774;42.178;26.578;2024-01-16T05:29:03;98889.00;;;3.54;100.00
21234;BME280;10774;42.178;26.578;2024-01-16T05:31:29;98893.41;;;3.53;100.00
21234;BME280;10774;42.178;26.578;2024-01-16T05:33:54;98894.66;;;3.46;100.00
21234;BME280;10774;42.178;26.578;2024-01-16T05:36:20;98892.75;;;3.32;100.00
21234;BME280;10774;42.178;26.578;2024-01-16T05:38:46;98904.28;;;3.31;100.00
21234;BME280;10774;42.178;26.578;2024-01-16T05:41:11;98905.34;;;2.93;100.00
21234;BME280;10774;42.178;26.578;2024-01-16T05:43:36;98917.06;;;3.23;100.00
21234;BME280;10774;42.178;26.578;2024-01-16T05:46:02;98918.66;;;3.27;100.00
21234;BME280;10774;42.178;26.578;2024-01-16T05:48:27;98923.31;;;3.22;100.00
21234;BME280;10774;42.178;26.578;2024-01-16T05:50:53;98922.91;;;3.12;100.00
21234;BME280;10774;42.178;26.578;2024-01-16T05:53:18;98945.78;;;3.32;100.00
21234;BME280;10774;42.178;26.578;2024-01-16T05:55:44;98953.47;;;3.20;100.00
21234;BME280;10774;42.178;26.578;2024-01-16T05:58:09;98957.09;;;3.36;100.00
21234;BME280;10774;42.178;26.578;2024-01-16T06:00:35;98959.81;;;3.34;100.00
21234;BME280;10774;42.178;26.578;2024-01-16T06:03:00;98969.19;;;3.41;100.00
21234;BME280;10774;42.178;26.578;2024-01-16T06:05:25;98975.56;;;3.20;100.00
21234;BME280;10774;42.178;26.578;2024-01-16T06:07:51;98985.47;;;2.61;100.00
21234;BME280;10774;42.178;26.578;2024-01-16T06:10:16;98999.97;;;2.53;100.00
21234;BME280;10774;42.178;26.578;2024-01-16T06:12:42;98983.50;;;2.84;100.00
21234;BME280;10774;42.178;26.578;2024-01-16T06:15:08;99003.41;;;2.74;100.00
21234;BME280;10774;42.178;26.578;2024-01-16T06:17:34;99009.16;;;2.83;100.00
21234;BME280;10774;42.178;26.578;2024-01-16T06:19:59;99023.69;;;2.94;100.00
21234;BME280;10774;42.178;26.578;2024-01-16T06:22:25;99021.44;;;3.03;100.00
21234;BME280;10774;42.178;26.578;2024-01-16T06:24:50;99017.34;;;3.15;100.00
21234;BME280;10774;42.178;26.578;2024-01-16T06:27:16;99037.34;;;3.22;100.00
21234;BME280;10774;42.178;26.578;2024-01-16T06:29:47;99039.34;;;3.17;100.00
21234;BME280;10774;42.178;26.578;2024-01-16T06:32:13;99046.72;;;3.29;100.00
21234;BME280;10774;42.178;26.578;2024-01-16T06:34:39;99050.47;;;3.42;100.00
21234;BME280;10774;42.178;26.578;2024-01-16T06:37:04;99065.50;;;3.61;100.00
21234;BME280;10774;42.178;26.578;2024-01-16T06:39:30;99062.91;;;3.59;100.00
21234;BME280;10774;42.178;26.578;2024-01-16T06:41:56;99066.03;;;3.67;100.00
21234;BME280;10774;42.178;26.578;2024-01-16T06:44:21;99058.00;;;3.86;100.00
21234;BME280;10774;42.178;26.578;2024-01-16T06:46:46;99068.63;;;3.86;100.00
21234;BME280;10774;42.178;26.578;2024-01-16T06:49:12;99081.00;;;3.51;100.00
21234;BME280;10774;42.178;26.578;2024-01-16T06:51:37;99096.91;;;3.51;100.00
21234;BME280;10774;42.178;26.578;2024-01-16T06:54:03;99098.84;;;3.48;100.00
21234;BME280;10774;42.178;26.578;2024-01-16T06:56:29;99102.25;;;3.68;100.00
21234;BME280;10774;42.178;26.578;2024-01-16T06:58:54;99109.66;;;3.62;100.00
21234;BME280;10774;42.178;26.578;2024-01-16T07:01:20;99120.91;;;3.84;100.00
21234;BME280;10774;42.178;26.578;2024-01-16T07:03:45;99110.31;;;3.84;100.00
21234;BME280;10774;42.178;26.578;2024-01-16T07:06:10;99129.72;;;3.67;100.00
21234;BME280;10774;42.178;26.578;2024-01-16T07:08:37;99129.81;;;3.83;100.00
21234;BME280;10774;42.178;26.578;2024-01-16T07:11:02;99133.91;;;3.54;100.00
21234;BME280;10774;42.178;26.578;2024-01-16T07:13:28;99131.06;;;3.59;100.00
21234;BME280;10774;42.178;26.578;2024-01-16T07:15:53;99127.91;;;3.68;100.00
21234;BME280;10774;42.178;26.578;2024-01-16T07:18:19;99135.94;;;3.49;100.00
21234;BME280;10774;42.178;26.578;2024-01-16T07:20:44;99149.63;;;3.59;100.00
21234;BME280;10774;42.178;26.578;2024-01-16T07:23:11;99165.06;;;3.87;100.00
21234;BME280;10774;42.178;26.578;2024-01-16T07:25:37;99154.31;;;4.07;100.00
21234;BME280;10774;42.178;26.578;2024-01-16T07:28:02;99165.47;;;4.31;100.00
21234;BME280;10774;42.178;26.578;2024-01-16T07:30:28;99165.34;;;4.17;100.00
21234;BME280;10774;42.178;26.578;2024-01-16T07:32:53;99163.66;;;4.32;100.00
21234;BME280;10774;42.178;26.578;2024-01-16T07:35:19;99173.59;;;4.45;100.00
21234;BME280;10774;42.178;26.578;2024-01-16T07:37:44;99169.06;;;4.47;100.00
21234;BME280;10774;42.178;26.578;2024-01-16T07:40:10;99169.06;;;4.30;100.00
21234;BME280;10774;42.178;26.578;2024-01-16T07:42:37;99170.31;;;4.58;100.00
21234;BME280;10774;42.178;26.578;2024-01-16T07:45:03;99178.44;;;4.72;100.00
21234;BME280;10774;42.178;26.578;2024-01-16T07:47:32;99169.31;;;4.93;100.00
21234;BME280;10774;42.178;26.578;2024-01-16T07:49:58;99183.84;;;5.04;100.00
21234;BME280;10774;42.178;26.578;2024-01-16T07:52:23;99181.66;;;5.12;100.00
21234;BME280;10774;42.178;26.578;2024-01-16T07:54:49;99187.59;;;5.33;100.00
21234;BME280;10774;42.178;26.578;2024-01-16T07:57:14;99196.09;;;5.39;100.00
21234;BME280;10774;42.178;26.578;2024-01-16T07:59:40;99204.31;;;5.19;100.00
21234;BME280;10774;42.178;26.578;2024-01-16T08:02:08;99210.50;;;5.35;100.00
21234;BME280;10774;42.178;26.578;2024-01-16T08:04:34;99206.13;;;5.34;100.00
21234;BME280;10774;42.178;26.578;2024-01-16T08:07:00;99208.47;;;5.40;100.00
21234;BME280;10774;42.178;26.578;2024-01-16T08:09:26;99218.44;;;5.68;100.00
21234;BME280;10774;42.178;26.578;2024-01-16T08:11:51;99224.91;;;5.80;100.00
21234;BME280;10774;42.178;26.578;2024-01-16T08:14:16;99225.66;;;5.82;100.00
21234;BME280;10774;42.178;26.578;2024-01-16T08:16:42;99225.84;;;6.11;100.00
21234;BME280;10774;42.178;26.578;2024-01-16T08:19:07;99237.28;;;6.28;100.00
21234;BME280;10774;42.178;26.578;2024-01-16T08:21:33;99252.44;;;6.42;100.00
21234;BME280;10774;42.178;26.578;2024-01-16T08:23:58;99257.66;;;6.60;100.00
21234;BME280;10774;42.178;26.578;2024-01-16T08:26:24;99258.78;;;6.55;100.00
21234;BME280;10774;42.178;26.578;2024-01-16T08:28:52;99265.91;;;6.71;100.00
21234;BME280;10774;42.178;26.578;2024-01-16T08:31:18;99263.56;;;6.80;100.00
21234;BME280;10774;42.178;26.578;2024-01-16T08:33:46;99269.16;;;6.90;100.00
21234;BME280;10774;42.178;26.578;2024-01-16T08:36:13;99271.97;;;7.03;100.00
21234;BME280;10774;42.178;26.578;2024-01-16T08:38:39;99278.78;;;7.23;99.86
21234;BME280;10774;42.178;26.578;2024-01-16T08:41:04;99281.44;;;7.23;98.21
21234;BME280;10774;42.178;26.578;2024-01-16T08:43:35;99296.16;;;7.44;97.78
21234;BME280;10774;42.178;26.578;2024-01-16T08:46:00;99311.78;;;7.50;96.62
21234;BME280;10774;42.178;26.578;2024-01-16T08:48:26;99288.06;;;7.60;96.22
21234;BME280;10774;42.178;26.578;2024-01-16T08:50:52;99293.88;;;7.81;96.11
21234;BME280;10774;42.178;26.578;2024-01-16T08:53:19;99305.38;;;7.96;94.39
21234;BME280;10774;42.178;26.578;2024-01-16T08:55:44;99312.47;;;7.97;93.33
21234;BME280;10774;42.178;26.578;2024-01-16T08:58:10;99323.97;;;8.11;91.71
21234;BME280;10774;42.178;26.578;2024-01-16T09:00:35;99317.00;;;8.23;90.22
21234;BME280;10774;42.178;26.578;2024-01-16T09:03:01;99316.91;;;8.39;87.92
21234;BME280;10774;42.178;26.578;2024-01-16T09:05:27;99321.84;;;8.45;86.98
21234;BME280;10774;42.178;26.578;2024-01-16T09:07:52;99331.72;;;8.57;85.17
21234;BME280;10774;42.178;26.578;2024-01-16T09:10:18;99346.97;;;8.70;82.87
21234;BME280;10774;42.178;26.578;2024-01-16T09:12:43;99346.47;;;8.50;87.19
21234;BME280;10774;42.178;26.578;2024-01-16T09:15:09;99351.22;;;8.59;85.88
21234;BME280;10774;42.178;26.578;2024-01-16T09:17:35;99357.44;;;8.60;85.49
21234;BME280;10774;42.178;26.578;2024-01-16T09:20:00;99365.34;;;8.61;87.53
21234;BME280;10774;42.178;26.578;2024-01-16T09:22:26;99354.09;;;8.83;88.56
21234;BME280;10774;42.178;26.578;2024-01-16T09:24:52;99360.19;;;8.85;85.42
21234;BME280;10774;42.178;26.578;2024-01-16T09:27:17;99362.13;;;8.42;83.88
21234;BME280;10774;42.178;26.578;2024-01-16T09:29:43;99362.06;;;8.44;83.76
21234;BME280;10774;42.178;26.578;2024-01-16T09:32:08;99371.44;;;8.63;82.52
21234;BME280;10774;42.178;26.578;2024-01-16T09:34:34;99361.56;;;8.78;81.59
21234;BME280;10774;42.178;26.578;2024-01-16T09:36:59;99372.81;;;9.10;81.36
21234;BME280;10774;42.178;26.578;2024-01-16T09:39:28;99364.44;;;9.02;80.88
21234;BME280;10774;42.178;26.578;2024-01-16T09:41:59;99368.47;;;8.95;78.58
21234;BME280;10774;42.178;26.578;2024-01-16T09:44:27;99370.19;;;8.96;76.19
21234;BME280;10774;42.178;26.578;2024-01-16T09:46:54;99363.50;;;8.76;77.51
21234;BME280;10774;42.178;26.578;2024-01-16T09:49:21;99370.84;;;8.73;75.60
21234;BME280;10774;42.178;26.578;2024-01-16T09:51:46;99357.56;;;8.44;76.84
21234;BME280;10774;42.178;26.578;2024-01-16T09:54:11;99376.28;;;8.30;77.62
21234;BME280;10774;42.178;26.578;2024-01-16T09:56:48;99375.97;;;8.34;80.73
21234;BME280;10774;42.178;26.578;2024-01-16T09:59:17;99381.13;;;8.52;79.91
21234;BME280;10774;42.178;26.578;2024-01-16T10:01:47;99371.25;;;8.67;79.12
21234;BME280;10774;42.178;26.578;2024-01-16T10:04:13;99385.16;;;8.86;76.57
21234;BME280;10774;42.178;26.578;2024-01-16T10:06:39;99399.84;;;8.93;75.32
21234;BME280;10774;42.178;26.578;2024-01-16T10:09:04;99388.56;;;9.15;80.77
21234;BME280;10774;42.178;26.578;2024-01-16T10:11:33;99399.47;;;9.52;75.10
21234;BME280;10774;42.178;26.578;2024-01-16T10:13:59;99410.75;;;9.82;71.87
21234;BME280;10774;42.178;26.578;2024-01-16T10:16:57;99422.59;;;9.40;65.12
21234;BME280;10774;42.178;26.578;2024-01-16T10:19:28;99418.88;;;9.15;65.76
21234;BME280;10774;42.178;26.578;2024-01-16T10:22:02;99434.53;;;9.22;65.68
21234;BME280;10774;42.178;26.578;2024-01-16T10:24:28;99443.63;;;9.19;65.37
21234;BME280;10774;42.178;26.578;2024-01-16T10:26:58;99443.75;;;9.18;65.39
21234;BME280;10774;42.178;26.578;2024-01-16T10:29:25;99434.94;;;9.15;63.66
21234;BME280;10774;42.178;26.578;2024-01-16T10:31:50;99440.09;;;9.19;65.73
21234;BME280;10774;42.178;26.578;2024-01-16T10:34:20;99426.34;;;9.10;64.48
21234;BME280;10774;42.178;26.578;2024-01-16T10:36:46;99424.50;;;9.38;63.45
21234;BME280;10774;42.178;26.578;2024-01-16T10:39:13;99436.84;;;9.40;61.35
21234;BME280;10774;42.178;26.578;2024-01-16T10:41:39;99437.50;;;9.44;62.64
21234;BME280;10774;42.178;26.578;2024-01-16T10:44:05;99418.75;;;9.44;63.63
21234;BME280;10774;42.178;26.578;2024-01-16T10:46:35;99435.44;;;9.35;60.58
21234;BME280;10774;42.178;26.578;2024-01-16T10:49:02;99421.06;;;9.23;60.05
21234;BME280;10774;42.178;26.578;2024-01-16T10:51:28;99444.81;;;9.67;59.52
21234;BME280;10774;42.178;26.578;2024-01-16T10:54:02;99450.97;;;9.82;60.78
21234;BME280;10774;42.178;26.578;2024-01-16T10:56:31;99461.50;;;9.98;60.80
21234;BME280;10774;42.178;26.578;2024-01-16T11:01:43;99469.41;;;9.87;59.16
21234;BME280;10774;42.178;26.578;2024-01-16T11:04:12;99443.34;;;9.89;60.13
21234;BME280;10774;42.178;26.578;2024-01-16T11:06:38;99458.91;;;10.09;58.34
21234;BME280;10774;42.178;26.578;2024-01-16T11:09:07;99448.19;;;10.09;58.62
21234;BME280;10774;42.178;26.578;2024-01-16T11:11:33;99454.97;;;10.02;58.11
21234;BME280;10774;42.178;26.578;2024-01-16T11:14:02;99454.22;;;10.26;58.16
21234;BME280;10774;42.178;26.578;2024-01-16T11:16:31;99473.34;;;10.34;57.05
21234;BME280;10774;42.178;26.578;2024-01-16T11:18:58;99468.16;;;10.18;56.28
21234;BME280;10774;42.178;26.578;2024-01-16T11:21:24;99472.22;;;10.11;56.42
21234;BME280;10774;42.178;26.578;2024-01-16T11:23:50;99463.53;;;10.33;56.10
21234;BME280;10774;42.178;26.578;2024-01-16T11:26:33;99473.50;;;10.56;55.41
21234;BME280;10774;42.178;26.578;2024-01-16T11:29:00;99475.00;;;10.47;54.95
21234;BME280;10774;42.178;26.578;2024-01-16T11:33:57;99465.56;;;10.42;55.71
21234;BME280;10774;42.178;26.578;2024-01-16T11:36:48;99478.47;;;10.50;53.97
21234;BME280;10774;42.178;26.578;2024-01-16T11:39:24;99477.69;;;10.60;54.47
21234;BME280;10774;42.178;26.578;2024-01-16T11:41:54;99474.44;;;10.68;52.92
21234;BME280;10774;42.178;26.578;2024-01-16T11:44:39;99487.28;;;10.39;52.42
21234;BME280;10774;42.178;26.578;2024-01-16T11:47:06;99492.75;;;10.50;52.29
21234;BME280;10774;42.178;26.578;2024-01-16T11:49:32;99489.69;;;10.67;51.69
21234;BME280;10774;42.178;26.578;2024-01-16T11:51:58;99474.34;;;11.06;49.52
21234;BME280;10774;42.178;26.578;2024-01-16T11:54:23;99492.03;;;11.21;46.16
21234;BME280;10774;42.178;26.578;2024-01-16T11:57:06;99484.88;;;11.33;47.31
21234;BME280;10774;42.178;26.578;2024-01-16T11:59:59;99479.34;;;11.47;46.59
21234;BME280;10774;42.178;26.578;2024-01-16T12:05:12;99498.44;;;11.56;44.96
21234;BME280;10774;42.178;26.578;2024-01-16T12:07:48;99468.31;;;11.15;45.43
21234;BME280;10774;42.178;26.578;2024-01-16T12:10:15;99482.84;;;11.00;45.77
21234;BME280;10774;42.178;26.578;2024-01-16T12:12:42;99483.56;;;11.39;45.12
21234;BME280;10774;42.178;26.578;2024-01-16T12:15:13;99485.28;;;11.40;44.95
21234;BME280;10774;42.178;26.578;2024-01-16T12:20:24;99502.19;;;12.12;43.53
21234;BME280;10774;42.178;26.578;2024-01-16T12:23:09;99485.63;;;11.83;44.15
21234;BME280;10774;42.178;26.578;2024-01-16T12:25:36;99492.84;;;11.83;43.34
21234;BME280;10774;42.178;26.578;2024-01-16T12:28:07;99510.00;;;11.80;43.32
21234;BME280;10774;42.178;26.578;2024-01-16T12:30:37;99507.06;;;11.72;42.00
21234;BME280;10774;42.178;26.578;2024-01-16T12:33:08;99512.06;;;11.65;42.52
21234;BME280;10774;42.178;26.578;2024-01-16T12:35:38;99512.25;;;11.14;42.45
21234;BME280;10774;42.178;26.578;2024-01-16T12:38:08;99538.13;;;11.52;42.06
21234;BME280;10774;42.178;26.578;2024-01-16T12:40:40;99533.66;;;11.40;41.55
21234;BME280;10774;42.178;26.578;2024-01-16T12:43:07;99528.59;;;11.11;42.42
21234;BME280;10774;42.178;26.578;2024-01-16T12:45:34;99540.78;;;11.28;42.40
21234;BME280;10774;42.178;26.578;2024-01-16T12:48:00;99540.41;;;11.09;42.19
21234;BME280;10774;42.178;26.578;2024-01-16T12:50:27;99535.66;;;11.25;42.48
21234;BME280;10774;42.178;26.578;2024-01-16T12:53:02;99557.59;;;11.06;42.37
21234;BME280;10774;42.178;26.578;2024-01-16T12:55:29;99562.09;;;11.18;42.40
21234;BME280;10774;42.178;26.578;2024-01-16T12:58:19;99564.31;;;10.88;42.86
21234;BME280;10774;42.178;26.578;2024-01-16T13:01:20;99558.75;;;10.40;44.32